Time;durP1;ratioP1;P1;durP2;ratioP2;P2;SDS_P1;SDS_P2;PMS_P1;PMS_P2;Temp;Humidity;BMP_temperature;BMP_pressure;BME280_temperature;BME280_humidity;BME280_pressure;Samples;Min_cycle;Max_cycle;Signal;HPM_P1;HPM_P2
2022/05/04 00:00:45;;;;;;;;;;;;;;;-143.79;100.00;62634.88;5074178;28;20002;-54
2022/05/04 00:03:12;;;;;;;;;;;;;;;-143.79;100.00;62634.88;5074106;28;20430;-55
2022/05/04 00:05:37;;;;;;;;;;;19.20;90.60;;;-143.79;100.00;62634.88;5074172;28;19967;-54
2022/05/04 00:08:04;;;;;;;;;;;;;;;-143.79;100.00;62634.88;5074051;28;19956;-54
2022/05/04 00:10:30;;;;;;;;;;;19.30;91.00;;;-143.79;100.00;62634.88;5074027;28;19920;-47
2022/05/04 00:12:57;;;;;;;;;;;19.20;90.90;;;-143.79;100.00;62634.88;5074284;28;20286;-48
2022/05/04 00:15:23;;;;;;;;;;;;;;;-143.79;100.00;62634.88;5073943;28;19924;-47
2022/05/04 00:17:49;;;;;;;;;;;;;;;-143.79;100.00;62634.88;5073755;28;20395;-46
2022/05/04 00:20:15;;;;;;;;;;;;;;;-143.79;100.00;62634.88;5073827;28;19991;-48
2022/05/04 00:22:41;;;;;;;;;;;;;;;-143.79;100.00;62634.88;5072944;28;19912;-47
2022/05/04 00:25:07;;;;;;;;;;;;;;;-143.79;100.00;62634.88;5073675;28;20494;-47
2022/05/04 00:27:34;;;;;;;;;;;;;;;-143.79;100.00;62634.88;5055733;28;20333;-46
2022/05/04 00:30:00;;;;;;;;;;;19.20;90.90;;;-143.79;100.00;62634.88;5073686;28;20420;-46
2022/05/04 00:32:26;;;;;;;;;;;;;;;-143.79;100.00;62634.88;5073506;28;20022;-46
2022/05/04 00:34:52;;;;;;;;;;;;;;;-143.79;100.00;62634.88;5073483;28;19912;-48
2022/05/04 00:37:18;;;;;;;;;;;19.20;90.90;;;-143.79;100.00;62634.88;5073225;28;20386;-48
2022/05/04 00:39:44;;;;;;;;;;;;;;;-143.79;100.00;62634.88;5073701;28;19939;-47
2022/05/04 00:42:17;;;;;;;;;;;19.10;89.10;;;-143.79;100.00;62634.88;5073452;28;20290;-47
2022/05/04 00:44:44;;;;;;;;;;;;;;;-143.79;100.00;62634.88;5073385;28;20516;-47
2022/05/04 00:47:10;;;;;;;;;;;19.10;90.80;;;-143.79;100.00;62634.88;5073350;28;19920;-55
2022/05/04 00:49:36;;;;;;;;;;;19.10;90.90;;;-143.79;100.00;62634.88;5073421;28;20003;-48
2022/05/04 00:52:06;;;;;;;;;;;19.10;90.80;;;-143.79;100.00;62634.88;5073246;28;19917;-47
2022/05/04 00:54:32;;;;;;;;;;;;;;;-143.79;100.00;62634.88;5073430;28;19916;-47
2022/05/04 00:56:59;;;;;;;;;;;19.10;90.90;;;-143.79;100.00;62634.88;5073024;28;19916;-47
2022/05/04 00:59:25;;;;;;;;;;;;;;;-143.79;100.00;62634.88;5073102;28;19923;-46
2022/05/04 01:01:52;;;;;;;;;;;;;;;-143.79;100.00;62634.88;5073278;28;19912;-46
2022/05/04 01:04:18;;;;;;;;;;;;;;;-143.79;100.00;62634.88;5073023;28;19939;-47
2022/05/04 01:06:45;;;;;;;;;;;;;;;-143.79;100.00;62634.88;5073070;28;19960;-46
2022/05/04 01:09:11;;;;;;;;;;;;;;;-143.79;100.00;62634.88;5055403;28;19916;-48
2022/05/04 01:11:37;;;;;;;;;;;;;;;-143.79;100.00;62634.88;5072960;28;20007;-48
2022/05/04 01:14:04;;;;;;;;;;;;;;;-143.79;100.00;62634.88;5073125;28;19948;-47
2022/05/04 01:16:31;;;;;;;;;;;19.10;90.80;;;-143.79;100.00;62634.88;5072890;28;19956;-47
2022/05/04 01:18:57;;;;;;;;;;;;;;;-143.79;100.00;62634.88;5072825;28;19916;-47
2022/05/04 01:21:22;;;;;;;;;;;19.10;90.80;;;-143.79;100.00;62634.88;5073434;28;19970;-47
2022/05/04 01:23:48;;;;;;;;;;;19.00;90.70;;;-143.79;100.00;62634.88;5073087;28;19920;-48
2022/05/04 01:26:17;;;;;;;;;;;19.00;90.70;;;-143.79;100.00;62634.88;5054895;28;19916;-55
2022/05/04 01:28:43;;;;;;;;;;;;;;;-143.79;100.00;62634.88;5072777;28;20007;-55
2022/05/04 01:31:09;;;;;;;;;;;;;;;-143.79;100.00;62634.88;5072763;28;20467;-54
2022/05/04 01:33:35;;;;;;;;;;;;;;;-143.79;100.00;62634.88;5072537;28;19917;-54
2022/05/04 01:36:01;;;;;;;;;;;;;;;-143.79;100.00;62634.88;5072771;28;19917;-52
2022/05/04 01:38:27;;;;;;;;;;;;;;;-143.79;100.00;62634.88;5072301;28;19924;-55
2022/05/04 01:40:53;;;;;;;;;;;;;;;-143.79;100.00;62634.88;5072621;28;20011;-55
2022/05/04 01:43:19;;;;;;;;;;;;;;;-143.79;100.00;62634.88;5072615;28;20394;-46
2022/05/04 01:45:45;;;;;;;;;;;;;;;-143.79;100.00;62634.88;5072630;28;20322;-47
2022/05/04 01:48:11;;;;;;;;;;;;;;;-143.79;100.00;62634.88;5072550;28;19923;-47
2022/05/04 01:50:37;;;;;;;;;;;;;;;-143.79;100.00;62634.88;5072529;28;19923;-48
2022/05/04 01:53:03;;;;;;;;;;;;;;;-143.79;100.00;62634.88;5072486;28;19935;-47
2022/05/04 01:55:32;;;;;;;;;;;;;;;-143.79;100.00;62634.88;5072462;28;19920;-46
2022/05/04 01:57:57;;;;;;;;;;;18.90;88.00;;;-143.79;100.00;62634.88;5072469;28;20291;-48
2022/05/04 02:00:23;;;;;;;;;;;;;;;-143.79;100.00;62634.88;5072436;28;19924;-47
2022/05/04 02:02:49;;;;;;;;;;;;;;;-143.79;100.00;62634.88;5072412;28;19917;-48
2022/05/04 02:05:15;;;;;;;;;;;;;;;-143.79;100.00;62634.88;5072420;28;19923;-47
2022/05/04 02:07:41;;;;;;;;;;;;;;;-143.79;100.00;62634.88;5072415;28;19916;-47
2022/05/04 02:10:08;;;;;;;;;;;;;;;-143.79;100.00;62634.88;5054482;28;20419;-47
2022/05/04 02:12:34;;;;;;;;;;;;;;;-143.79;100.00;62634.88;5054282;28;19963;-47
2022/05/04 02:15:01;;;;;;;;;;;;;;;-143.79;100.00;62634.88;5072561;28;19920;-48
2022/05/04 02:17:26;;;;;;;;;;;18.80;89.70;;;-143.79;100.00;62634.88;5072203;28;20290;-47
2022/05/04 02:19:52;;;;;;;;;;;18.90;89.90;;;-143.79;100.00;62634.88;5072319;28;19917;-55
2022/05/04 02:22:18;;;;;;;;;;;18.90;90.50;;;-143.79;100.00;62634.88;5054618;28;20000;-54
2022/05/04 02:24:43;;;;;;;;;;;18.90;89.50;;;-143.79;100.00;62634.88;5072215;28;19917;-54
2022/05/04 02:27:09;;;;;;;;;;;;;;;-143.79;100.00;62634.88;5054197;28;19952;-53
2022/05/04 02:29:35;;;;;;;;;;;;;;;-143.79;100.00;62634.88;5072388;28;20014;-54
2022/05/04 02:32:01;;;;;;;;;;;;;;;-143.79;100.00;62634.88;5072194;28;19919;-54
2022/05/04 02:34:27;;;;;;;;;;;;;;;-143.79;100.00;62634.88;5072330;28;19920;-55
2022/05/04 02:39:38;;;;;;;;;;;;;;;-143.79;100.00;62634.88;5072268;28;20055;-47
2022/05/04 02:42:04;;;;;;;;;;;18.90;90.60;;;-143.79;100.00;62634.88;5072330;28;20377;-47
2022/05/04 02:44:29;;;;;;;;;;;18.90;90.60;;;-143.79;100.00;62634.88;5072843;28;20381;-47
2022/05/04 02:46:55;;;;;;;;;;;;;;;-143.79;100.00;62634.88;5075704;28;19963;-48
2022/05/04 02:49:21;;;;;;;;;;;;;;;-143.79;100.00;62634.88;5075608;28;19916;-48
2022/05/04 02:51:47;;;;;;;;;;;;;;;-143.79;100.00;62634.88;5075565;28;19978;-47
2022/05/04 02:54:13;;;;;;;;;;;;;;;-143.79;100.00;62634.88;5075503;28;19923;-48
2022/05/04 02:56:39;;;;;;;;;;;;;;;-143.79;100.00;62634.88;5075437;28;20301;-47
2022/05/04 02:59:05;;;;;;;;;;;;;;;-143.79;100.00;62634.88;5075448;28;19916;-47
2022/05/04 03:04:16;;;;;;;;;;;18.90;87.50;;;-143.79;100.00;62634.88;5075382;28;19974;-48
2022/05/04 03:06:42;;;;;;;;;;;;;;;-143.79;100.00;62634.88;5075532;28;19916;-48
2022/05/04 03:09:08;;;;;;;;;;;;;;;-143.79;100.00;62634.88;5075492;28;20205;-47
2022/05/04 03:14:20;;;;;;;;;;;18.80;90.50;;;-143.79;100.00;62634.88;5075248;28;19978;-56
2022/05/04 03:16:46;;;;;;;;;;;;;;;-143.79;100.00;62634.88;5075299;28;19960;-47
2022/05/04 03:19:12;;;;;;;;;;;;;;;-143.79;100.00;62634.88;5075072;28;20449;-47
2022/05/04 03:21:38;;;;;;;;;;;;;;;-143.79;100.00;62634.88;5075030;28;19955;-47
2022/05/04 03:24:04;;;;;;;;;;;18.70;90.60;;;-143.79;100.00;62634.88;5074973;28;19917;-47
2022/05/04 03:26:30;;;;;;;;;;;;;;;-143.79;100.00;62634.88;5074813;28;19927;-47
2022/05/04 03:28:56;;;;;;;;;;;18.80;90.50;;;-143.79;100.00;62634.88;5074908;28;20011;-48
2022/05/04 03:31:22;;;;;;;;;;;;;;;-143.79;100.00;62634.88;5074856;28;20015;-46
2022/05/04 03:33:48;;;;;;;;;;;;;;;-143.79;100.00;62634.88;5074898;28;20383;-55
2022/05/04 03:36:14;;;;;;;;;;;;;;;-143.79;100.00;62634.88;5074612;28;19948;-56
2022/05/04 03:38:40;;;;;;;;;;;18.70;90.40;;;-143.79;100.00;62634.88;5074592;28;20383;-54
2022/05/04 03:41:06;;;;;;;;;;;;;;;-143.79;100.00;62634.88;5074650;28;19916;-55
2022/05/04 03:43:31;;;;;;;;;;;;;;;-143.79;100.00;62634.88;5074620;28;19970;-55
2022/05/04 03:46:17;;;;;;;;;;;;;;;-143.79;100.00;62634.88;5074807;28;19917;-55
2022/05/04 03:48:44;;;;;;;;;;;;;;;-143.79;100.00;62634.88;5074734;28;20282;-55
2022/05/04 03:51:10;;;;;;;;;;;18.70;90.50;;;-143.79;100.00;62634.88;5074730;28;20339;-48
2022/05/04 03:53:37;;;;;;;;;;;18.70;90.40;;;-143.79;100.00;62634.88;5074430;28;19913;-54
2022/05/04 03:56:03;;;;;;;;;;;;;;;-143.79;100.00;62634.88;5074346;28;20344;-55
2022/05/04 03:58:29;;;;;;;;;;;;;;;-143.79;100.00;62634.88;5074117;28;19916;-53
2022/05/04 04:00:55;;;;;;;;;;;;;;;-143.79;100.00;62634.88;5074235;28;19962;-55
2022/05/04 04:03:21;;;;;;;;;;;;;;;-143.79;100.00;62634.88;5074093;28;19923;-55
2022/05/04 04:05:47;;;;;;;;;;;;;;;-143.79;100.00;62634.88;5074381;28;20019;-54
2022/05/04 04:08:13;;;;;;;;;;;;;;;-143.79;100.00;62634.88;5074100;28;20297;-55
2022/05/04 04:10:39;;;;;;;;;;;;;;;-143.79;100.00;62634.88;5074343;28;19920;-54
2022/05/04 04:13:08;;;;;;;;;;;;;;;-143.79;100.00;62634.88;5074045;28;20011;-54
2022/05/04 04:15:34;;;;;;;;;;;;;;;-143.79;100.00;62634.88;5073901;28;19939;-55
2022/05/04 04:18:00;;;;;;;;;;;;;;;-143.79;100.00;62634.88;5056302;28;20325;-54
2022/05/04 04:23:10;;;;;;;;;;;18.60;87.50;;;-143.79;100.00;62634.88;5073807;28;20008;-55
2022/05/04 04:25:37;;;;;;;;;;;;;;;-143.79;100.00;62634.88;5073753;28;20019;-55
2022/05/04 04:28:02;;;;;;;;;;;18.40;90.30;;;-143.79;100.00;62634.88;5055814;28;19913;-55
2022/05/04 04:30:28;;;;;;;;;;;;;;;-143.79;100.00;62634.88;5073937;28;19917;-51
2022/05/04 04:32:54;;;;;;;;;;;18.60;90.50;;;-143.79;100.00;62634.88;5073607;28;19919;-49
2022/05/04 04:35:20;;;;;;;;;;;18.60;90.60;;;-143.79;100.00;62634.88;5073815;28;19920;-47
2022/05/04 04:37:45;;;;;;;;;;;;;;;-143.79;100.00;62634.88;5073315;28;20513;-46
2022/05/04 04:40:12;;;;;;;;;;;;;;;-143.79;100.00;62634.88;5073401;28;19931;-47
2022/05/04 04:42:37;;;;;;;;;;;;;;;-143.79;100.00;62634.88;5073466;28;20432;-48
2022/05/04 04:45:04;;;;;;;;;;;;;;;-143.79;100.00;62634.88;5073660;28;19917;-47
2022/05/04 04:47:30;;;;;;;;;;;;;;;-143.79;100.00;62634.88;5073282;28;19927;-54
2022/05/04 04:49:56;;;;;;;;;;;18.60;90.40;;;-143.79;100.00;62634.88;5073576;28;20267;-55
2022/05/04 04:52:23;;;;;;;;;;;;;;;-143.79;100.00;62634.88;5073282;28;19916;-54
2022/05/04 04:54:50;;;;;;;;;;;;;;;-143.79;100.00;62634.88;5073176;28;19999;-55
2022/05/04 04:57:16;;;;;;;;;;;;;;;-143.79;100.00;62634.88;5073091;28;19962;-54
2022/05/04 04:59:42;;;;;;;;;;;18.50;88.50;;;-143.79;100.00;62634.88;5073154;28;19917;-55
2022/05/04 05:02:08;;;;;;;;;;;18.50;90.40;;;-143.79;100.00;62634.88;5072991;28;19923;-54
2022/05/04 05:04:34;;;;;;;;;;;;;;;-143.79;100.00;62634.88;5073096;28;20006;-54
2022/05/04 05:06:59;;;;;;;;;;;18.50;90.50;;;-143.79;100.00;62634.88;5072772;28;19920;-48
2022/05/04 05:09:25;;;;;;;;;;;;;;;-143.79;100.00;62634.88;5072922;28;19955;-47
2022/05/04 05:11:51;;;;;;;;;;;;;;;-143.79;100.00;62634.88;5072954;28;20282;-47
2022/05/04 05:17:02;;;;;;;;;;;;;;;-143.79;100.00;62634.88;5072838;28;19969;-48
2022/05/04 05:19:28;;;;;;;;;;;;;;;-143.79;100.00;62634.88;5073145;28;20294;-47
2022/05/04 05:21:53;;;;;;;;;;;18.50;89.70;;;-143.79;100.00;62634.88;5072848;28;19927;-47
2022/05/04 05:24:19;;;;;;;;;;;;;;;-143.79;100.00;62634.88;5072879;28;20410;-55
2022/05/04 05:26:45;;;;;;;;;;;;;;;-143.79;100.00;62634.88;5073115;28;19955;-54
2022/05/04 05:29:11;;;;;;;;;;;;;;;-143.79;100.00;62634.88;5073018;28;19962;-55
2022/05/04 05:31:38;;;;;;;;;;;;;;;-143.79;100.00;62634.88;5072768;28;19924;-55
2022/05/04 05:34:03;;;;;;;;;;;18.50;87.40;;;-143.79;100.00;62634.88;5072639;28;20432;-53
2022/05/04 05:36:29;;;;;;;;;;;;;;;-143.79;100.00;62634.88;5072707;28;19916;-56
2022/05/04 05:38:55;;;;;;;;;;;18.50;90.30;;;-143.79;100.00;62634.88;5072606;28;19917;-54
2022/05/04 05:41:23;;;;;;;;;;;;;;;-143.79;100.00;62634.88;5072917;28;19921;-55
2022/05/04 05:43:49;;;;;;;;;;;;;;;-143.79;100.00;62634.88;5072657;28;20276;-54
2022/05/04 05:46:15;;;;;;;;;;;;;;;-143.79;100.00;62634.88;5072512;28;19916;-55
2022/05/04 05:48:42;;;;;;;;;;;;;;;-143.79;100.00;62634.88;5072433;28;19923;-54
2022/05/04 05:51:08;;;;;;;;;;;;;;;-143.79;100.00;62634.88;5072439;28;20436;-56
2022/05/04 05:53:34;;;;;;;;;;;;;;;-143.79;100.00;62634.88;5072419;28;19999;-55
2022/05/04 05:56:00;;;;;;;;;;;;;;;-143.79;100.00;62634.88;5072419;28;19917;-55
2022/05/04 05:58:26;;;;;;;;;;;;;;;-143.79;100.00;62634.88;5054314;28;20294;-55
2022/05/04 06:00:52;;;;;;;;;;;;;;;-143.79;100.00;62634.88;5072675;28;19923;-48
2022/05/04 06:03:18;;;;;;;;;;;;;;;-143.79;100.00;62634.88;5072478;28;19912;-47
2022/05/04 06:05:44;;;;;;;;;;;;;;;-143.79;100.00;62634.88;5072583;28;19946;-46
2022/05/04 06:08:10;;;;;;;;;;;;;;;-143.79;100.00;62634.88;5072332;28;20268;-47
2022/05/04 06:10:37;;;;;;;;;;;18.40;90.40;;;-143.79;100.00;62634.88;5072579;28;20014;-47
2022/05/04 06:13:03;;;;;;;;;;;;;;;-143.79;100.00;62634.88;5072206;28;20392;-48
2022/05/04 06:15:29;;;;;;;;;;;;;;;-143.79;100.00;62634.88;5072154;28;19913;-49
2022/05/04 06:17:56;;;;;;;;;;;;;;;-143.79;100.00;62634.88;5072195;28;19917;-49
2022/05/04 06:20:24;;;;;;;;;;;18.50;87.30;;;-143.79;100.00;62634.88;5074270;28;19923;-50
2022/05/04 06:22:50;;;;;;;;;;;;;;;-143.79;100.00;62634.88;5076090;28;19965;-51
2022/05/04 06:25:16;;;;;;;;;;;18.50;90.50;;;-143.79;100.00;62634.88;5075995;28;20405;-50
2022/05/04 06:27:42;;;;;;;;;;;;;;;-143.79;100.00;62634.88;5075883;28;19917;-49
2022/05/04 06:35:37;;;;;;;;;;;;;;;-143.79;100.00;62634.88;5075807;28;19924;-49
2022/05/04 06:38:02;;;;;;;;;;;18.50;90.50;;;-143.79;100.00;62634.88;5075593;28;19920;-55
2022/05/04 06:40:28;;;;;;;;;;;;;;;-143.79;100.00;62634.88;5075689;28;19966;-54
2022/05/04 06:42:54;;;;;;;;;;;18.60;90.40;;;-143.79;100.00;62634.88;5075679;28;20014;-54
2022/05/04 06:45:20;;;;;;;;;;;18.60;90.50;;;-143.79;100.00;62634.88;5075874;28;19955;-54
2022/05/04 06:47:46;;;;;;;;;;;;;;;-143.79;100.00;62634.88;5075510;28;20334;-54
2022/05/04 06:50:12;;;;;;;;;;;18.60;90.40;;;-143.79;100.00;62634.88;5075524;28;19923;-54
2022/05/04 06:52:38;;;;;;;;;;;;;;;-143.79;100.00;62634.88;5075713;28;19936;-55
2022/05/04 06:55:05;;;;;;;;;;;;;;;-143.79;100.00;62634.88;5075472;28;19923;-48
2022/05/04 06:57:31;;;;;;;;;;;;;;;-143.79;100.00;62634.88;5075547;28;20431;-49
2022/05/04 06:59:59;;;;;;;;;;;18.70;90.40;;;-143.79;100.00;62634.88;5040821;28;19916;-49
2022/05/04 07:02:25;;;;;;;;;;;;;;;-143.79;100.00;62634.88;5075206;28;19913;-49
2022/05/04 07:04:51;;;;;;;;;;;;;;;-143.79;100.00;62634.88;5075273;28;19916;-48
2022/05/04 07:07:17;;;;;;;;;;;;;;;-143.79;100.00;62634.88;5075223;28;19913;-49
2022/05/04 07:09:43;;;;;;;;;;;;;;;-143.79;100.00;62634.88;5075163;28;19988;-49
2022/05/04 07:12:09;;;;;;;;;;;18.90;90.70;;;-143.79;100.00;62634.88;5075199;28;19970;-49
2022/05/04 07:14:35;;;;;;;;;;;18.90;90.70;;;-143.79;100.00;62634.88;5075091;28;19913;-55
2022/05/04 07:17:00;;;;;;;;;;;18.90;90.50;;;-143.79;100.00;62634.88;5074997;28;20020;-51
2022/05/04 07:19:26;;;;;;;;;;;18.90;90.50;;;-143.79;100.00;62634.88;5075003;28;19924;-55
2022/05/04 07:21:52;;;;;;;;;;;;;;;-143.79;100.00;62634.88;5074964;28;19924;-55
2022/05/04 07:24:18;;;;;;;;;;;;;;;-143.79;100.00;62634.88;5074880;28;19928;-56
2022/05/04 07:26:44;;;;;;;;;;;19.00;90.60;;;-143.79;100.00;62634.88;5074819;28;19916;-54
2022/05/04 07:29:10;;;;;;;;;;;;;;;-143.79;100.00;62634.88;5074773;28;20007;-54
2022/05/04 07:31:38;;;;;;;;;;;19.00;88.80;;;-143.79;100.00;62634.88;5074418;28;19923;-55
2022/05/04 07:34:04;;;;;;;;;;;19.00;90.70;;;-143.79;100.00;62634.88;5074868;28;20010;-55
2022/05/04 07:36:29;;;;;;;;;;;19.00;90.10;;;-143.79;100.00;62634.88;5074505;28;19971;-55
2022/05/04 07:38:55;;;;;;;;;;;;;;;-143.79;100.00;62634.88;5074590;28;19916;-54
2022/05/04 07:44:06;;;;;;;;;;;19.00;90.50;;;-143.79;100.00;62634.88;5074657;28;20305;-54
2022/05/04 07:46:33;;;;;;;;;;;18.90;90.50;;;-143.79;100.00;62634.88;5074519;28;19916;-56
2022/05/04 07:48:59;;;;;;;;;;;18.90;90.20;;;-143.79;100.00;62634.88;5074455;28;19917;-54
2022/05/04 07:51:25;;;;;;;;;;;;;;;-143.79;100.00;62634.88;5074428;28;19924;-46
2022/05/04 07:53:51;;;;;;;;;;;;;;;-143.79;100.00;62634.88;5074622;28;19916;-47
2022/05/04 07:56:17;;;;;;;;;;;;;;;-143.79;100.00;62634.88;5074256;28;19917;-48
2022/05/04 07:58:43;;;;;;;;;;;;;;;-143.79;100.00;62634.88;5073997;28;19920;-46
2022/05/04 08:06:38;;;;;;;;;;;19.10;90.30;;;-143.79;100.00;62634.88;5074109;28;20345;-47
2022/05/04 08:09:04;;;;;;;;;;;;;;;-143.79;100.00;62634.88;5074241;28;19916;-46
2022/05/04 08:11:30;;;;;;;;;;;;;;;-143.79;100.00;62634.88;5073829;28;20025;-48
2022/05/04 08:13:56;;;;;;;;;;;19.30;90.40;;;-143.79;100.00;62634.88;5073807;28;19913;-46
2022/05/04 08:16:22;;;;;;;;;;;;;;;-143.79;100.00;62634.88;5073758;28;20015;-46
2022/05/04 08:18:48;;;;;;;;;;;;;;;-143.79;100.00;62634.88;5073706;28;19916;-47
2022/05/04 08:21:14;;;;;;;;;;;19.30;89.70;;;-143.79;100.00;62634.88;5074136;28;19916;-46
2022/05/04 08:23:40;;;;;;;;;;;;;;;-143.79;100.00;62634.88;5074021;28;19916;-47
2022/05/04 08:26:06;;;;;;;;;;;19.40;90.30;;;-143.79;100.00;62634.88;5073713;28;20302;-46
2022/05/04 08:28:32;;;;;;;;;;;;;;;-143.79;100.00;62634.88;5073701;28;19916;-47
2022/05/04 08:30:58;;;;;;;;;;;;;;;-143.79;100.00;62634.88;5073356;28;19936;-47
2022/05/04 08:33:23;;;;;;;;;;;;;;;-143.79;100.00;62634.88;5073516;28;19970;-47
2022/05/04 08:35:49;;;;;;;;;;;;;;;-143.79;100.00;62634.88;5073416;28;19912;-46
2022/05/04 08:38:15;;;;;;;;;;;;;;;-143.79;100.00;62634.88;5073226;28;20008;-46
2022/05/04 08:40:41;;;;;;;;;;;;;;;-143.79;100.00;62634.88;5073376;28;20361;-47
2022/05/04 08:43:08;;;;;;;;;;;;;;;-143.79;100.00;62634.88;5072918;28;19917;-47
2022/05/04 08:45:37;;;;;;;;;;;;;;;-143.79;100.00;62634.88;5055569;28;19924;-54
2022/05/04 08:48:04;;;;;;;;;;;;;;;-143.79;100.00;62634.88;5073330;28;19917;-50
2022/05/04 08:50:31;;;;;;;;;;;19.70;90.10;;;-143.79;100.00;62634.88;5073514;28;19959;-50
2022/05/04 08:52:57;;;;;;;;;;;;;;;-143.79;100.00;62634.88;5073175;28;19916;-52
2022/05/04 08:55:23;;;;;;;;;;;19.80;90.30;;;-143.79;100.00;62634.88;5073176;28;20310;-51
2022/05/04 08:57:50;;;;;;;;;;;;;;;-143.79;100.00;62634.88;5073000;28;20023;-52
2022/05/04 09:00:16;;;;;;;;;;;;;;;-143.79;100.00;62634.88;5073085;28;20306;-53
2022/05/04 09:02:42;;;;;;;;;;;19.90;90.10;;;-143.79;100.00;62634.88;5072981;28;20290;-52
2022/05/04 09:05:15;;;;;;;;;;;19.90;88.50;;;-143.79;100.00;62634.88;5073363;28;19912;-48
2022/05/04 09:07:41;;;;;;;;;;;;;;;-143.79;100.00;62634.88;5073296;28;19920;-47
2022/05/04 09:10:07;;;;;;;;;;;;;;;-143.79;100.00;62634.88;5072771;28;19920;-48
2022/05/04 09:12:33;;;;;;;;;;;;;;;-143.79;100.00;62634.88;5054918;28;20017;-48
2022/05/04 09:14:59;;;;;;;;;;;20.00;89.40;;;-143.79;100.00;62634.88;5072841;28;19952;-49
2022/05/04 09:17:25;;;;;;;;;;;;;;;-143.79;100.00;62634.88;5072703;28;19962;-48
2022/05/04 09:22:38;;;;;;;;;;;20.10;90.00;;;-143.79;100.00;62634.88;5073188;28;19923;-50
2022/05/04 09:25:09;;;;;;;;;;;;;;;-143.79;100.00;62634.88;5072576;28;20286;-46
2022/05/04 09:27:37;;;;;;;;;;;;;;;-143.79;100.00;62634.88;5054861;28;19916;-47
2022/05/04 09:30:04;;;;;;;;;;;;;;;-143.79;100.00;62634.88;5072623;28;20417;-46
2022/05/04 09:32:30;;;;;;;;;;;20.10;88.70;;;-143.79;100.00;62634.88;5072566;28;19927;-49
2022/05/04 09:34:55;;;;;;;;;;;20.10;87.40;;;-143.79;100.00;62634.88;5072608;28;20015;-48
2022/05/04 09:45:39;;;;;;;;;;;;;;;-143.79;100.00;62634.88;5072710;28;20361;-51
2022/05/04 09:48:05;;;;;;;;;;;;;;;-143.79;100.00;62634.88;5072526;28;20397;-53
2022/05/04 09:50:39;;;;;;;;;;;;;;;-143.79;100.00;62634.88;5072376;28;19916;-53
2022/05/04 09:53:05;;;;;;;;;;;20.40;88.40;;;-143.79;100.00;62634.88;5072604;28;19916;-51
2022/05/04 09:55:30;;;;;;;;;;;20.30;84.80;;;-143.79;100.00;62634.88;5076693;28;19921;-52
2022/05/04 09:57:56;;;;;;;;;;;20.40;88.40;;;-143.79;100.00;62634.88;5058469;28;19917;-52
2022/05/04 10:00:24;;;;;;;;;;;20.50;88.10;;;-143.79;100.00;62634.88;5076266;28;19917;-52
2022/05/04 10:02:54;;;;;;;;;;;20.50;88.10;;;-143.79;100.00;62634.88;5076511;28;19928;-52
2022/05/04 10:05:20;;;;;;;;;;;20.50;85.50;;;-143.79;100.00;62634.88;5076187;28;20437;-52
2022/05/04 10:07:50;;;;;;;;;;;20.50;88.00;;;-143.79;100.00;62634.88;5076352;28;20378;-51
2022/05/04 10:10:20;;;;;;;;;;;;;;;-143.79;100.00;62634.88;5076622;28;19921;-52
2022/05/04 10:12:47;;;;;;;;;;;20.60;84.50;;;-143.79;100.00;62634.88;5076567;28;20004;-52
2022/05/04 10:15:15;;;;;;;;;;;21.00;88.10;;;-143.79;100.00;62634.88;5076187;28;19916;-51
2022/05/04 10:17:43;;;;;;;;;;;20.70;88.10;;;-143.79;100.00;62634.88;5076191;28;19916;-48
2022/05/04 10:20:16;;;;;;;;;;;;;;;-143.79;100.00;62634.88;5076229;28;19931;-53
2022/05/04 10:23:02;;;;;;;;;;;20.80;87.70;;;-143.79;100.00;62634.88;5076054;28;19917;-51
2022/05/04 10:25:32;;;;;;;;;;;;;;;-143.79;100.00;62634.88;5058185;28;20430;-54
2022/05/04 10:28:05;;;;;;;;;;;20.80;87.70;;;-143.79;100.00;62634.88;5058089;28;19916;-53
2022/05/04 10:30:31;;;;;;;;;;;20.90;88.10;;;-143.79;100.00;62634.88;5075886;28;19953;-52
2022/05/04 10:33:05;;;;;;;;;;;20.90;88.00;;;-143.79;100.00;62634.88;5076196;28;20019;-52
2022/05/04 10:35:49;;;;;;;;;;;;;;;-143.79;100.00;62634.88;5075816;28;20429;-52
2022/05/04 10:38:19;;;;;;;;;;;;;;;-143.79;100.00;62634.88;5075698;28;19983;-47
2022/05/04 10:40:46;;;;;;;;;;;20.90;87.80;;;-143.79;100.00;62634.88;5075687;28;19924;-47
2022/05/04 10:43:12;;;;;;;;;;;20.90;85.50;;;-143.79;100.00;62634.88;5075682;28;19916;-48
2022/05/04 10:45:42;;;;;;;;;;;20.90;87.60;;;-143.79;100.00;62634.88;5075636;28;20405;-48
2022/05/04 10:48:20;;;;;;;;;;;21.00;87.70;;;-143.79;100.00;62634.88;5075587;28;19956;-50
2022/05/04 10:50:53;;;;;;;;;;;21.00;87.70;;;-143.79;100.00;62634.88;5075562;28;19924;-51
2022/05/04 10:53:20;;;;;;;;;;;;;;;-143.79;100.00;62634.88;5075538;28;19920;-48
2022/05/04 10:56:01;;;;;;;;;;;;;;;-143.79;100.00;62634.88;5075513;28;19916;-51
2022/05/04 10:58:33;;;;;;;;;;;;;;;-143.79;100.00;62634.88;5075306;28;19916;-53
2022/05/04 11:01:31;;;;;;;;;;;21.20;87.50;;;-143.79;100.00;62634.88;5075669;28;19923;-52
2022/05/04 11:04:11;;;;;;;;;;;21.20;87.60;;;-143.79;100.00;62634.88;5075439;28;20290;-52
2022/05/04 11:06:54;;;;;;;;;;;21.20;87.60;;;-143.79;100.00;62634.88;5074595;28;19917;-51
2022/05/04 11:09:21;;;;;;;;;;;;;;;-143.79;100.00;62634.88;5075321;28;19934;-51
2022/05/04 11:11:49;;;;;;;;;;;21.20;87.70;;;-143.79;100.00;62634.88;5075502;28;19920;-54
2022/05/04 11:14:16;;;;;;;;;;;;;;;-143.79;100.00;62634.88;5075576;28;20302;-54
2022/05/04 11:16:43;;;;;;;;;;;21.20;86.50;;;-143.79;100.00;62634.88;5075168;28;19917;-53
2022/05/04 11:19:11;;;;;;;;;;;21.30;87.60;;;-143.79;100.00;62634.88;5075103;28;19916;-55
2022/05/04 11:21:37;;;;;;;;;;;21.30;87.60;;;-143.79;100.00;62634.88;5075113;28;20398;-51
2022/05/04 11:24:05;;;;;;;;;;;21.30;87.30;;;-143.79;100.00;62634.88;5075055;28;20030;-52
2022/05/04 11:26:37;;;;;;;;;;;21.30;85.70;;;-143.79;100.00;62634.88;5075220;28;19916;-54
2022/05/04 11:29:10;;;;;;;;;;;;;;;-143.79;100.00;62634.88;5075025;28;19920;-52
2022/05/04 11:31:37;;;;;;;;;;;21.30;87.50;;;-143.79;100.00;62634.88;5074928;28;19916;-48
2022/05/04 11:34:03;;;;;;;;;;;21.40;87.60;;;-143.79;100.00;62634.88;5074907;28;19916;-47
2022/05/04 11:36:28;;;;;;;;;;;21.40;83.70;;;-143.79;100.00;62634.88;5074538;28;19923;-47
2022/05/04 11:38:54;;;;;;;;;;;21.40;87.40;;;-143.79;100.00;62634.88;5074672;28;19916;-48
2022/05/04 11:41:20;;;;;;;;;;;;;;;-143.79;100.00;62634.88;5074684;28;19920;-47
2022/05/04 11:43:50;;;;;;;;;;;21.40;87.10;;;-143.79;100.00;62634.88;5074564;28;19916;-47
2022/05/04 11:46:16;;;;;;;;;;;21.40;84.30;;;-143.79;100.00;62634.88;5074589;28;19917;-47
2022/05/04 11:48:43;;;;;;;;;;;;;;;-143.79;100.00;62634.88;5074539;28;20371;-48
2022/05/04 11:51:18;;;;;;;;;;;21.50;87.60;;;-143.79;100.00;62634.88;5074862;28;19917;-53
2022/05/04 11:53:45;;;;;;;;;;;21.50;87.50;;;-143.79;100.00;62634.88;5074475;28;20401;-51
2022/05/04 11:56:11;;;;;;;;;;;21.50;87.70;;;-143.79;100.00;62634.88;5074452;28;20408;-52
2022/05/04 11:58:37;;;;;;;;;;;21.50;87.30;;;-143.79;100.00;62634.88;5074557;28;19969;-53
2022/05/04 12:01:04;;;;;;;;;;;;;;;-143.79;100.00;62634.88;5074196;28;19932;-52
2022/05/04 12:03:33;;;;;;;;;;;21.70;85.90;;;-143.79;100.00;62634.88;5074158;28;20283;-52
2022/05/04 12:06:01;;;;;;;;;;;21.30;87.20;;;-143.79;100.00;62634.88;5074183;28;19923;-51
2022/05/04 12:08:27;;;;;;;;;;;;;;;-143.79;100.00;62634.88;5074187;28;19974;-48
2022/05/04 12:10:53;;;;;;;;;;;;;;;-143.79;100.00;62634.88;5074360;28;19920;-49
2022/05/04 12:13:23;;;;;;;;;;;21.60;85.20;;;-143.79;100.00;62634.88;5074006;28;19938;-47
2022/05/04 12:15:54;;;;;;;;;;;;;;;-143.79;100.00;62634.88;5074017;28;20379;-48
2022/05/04 12:18:20;;;;;;;;;;;;;;;-143.79;100.00;62634.88;5072799;28;19917;-48